Time;durP1;ratioP1;P1;durP2;ratioP2;P2;SDS_P1;SDS_P2;PMS_P1;PMS_P2;Temp;Humidity;BMP_temperature;BMP_pressure;BME280_temperature;BME280_humidity;BME280_pressure;Samples;Min_cycle;Max_cycle;Signal;HPM_P1;HPM_P2
2021/06/23 00:01:18;;;;;;;4.07;3.13;;;15.40;99.90;;;;;;5078369;28;20024;-72
2021/06/23 00:03:44;;;;;;;9.07;4.32;;;15.40;99.90;;;;;;5084553;28;20070;-76
2021/06/23 00:06:22;;;;;;;6.20;3.17;;;15.40;99.90;;;;;;5083555;28;20140;-75
2021/06/23 00:08:47;;;;;;;7.63;3.42;;;15.40;99.90;;;;;;5075862;28;20044;-75
2021/06/23 00:11:52;;;;;;;5.13;3.80;;;15.30;99.90;;;;;;5079677;28;20028;-76
2021/06/23 00:14:19;;;;;;;6.30;3.45;;;15.30;99.90;;;;;;5061155;28;20036;-75
2021/06/23 00:16:45;;;;;;;7.47;3.42;;;15.20;99.90;;;;;;5078333;28;20058;-75
2021/06/23 00:19:10;;;;;;;7.65;3.22;;;15.20;99.90;;;;;;5077224;28;20063;-75
2021/06/23 00:21:36;;;;;;;4.88;3.30;;;15.20;99.90;;;;;;5078430;28;20048;-75
2021/06/23 00:24:02;;;;;;;5.53;3.70;;;15.10;99.90;;;;;;5073138;28;20031;-75
2021/06/23 00:26:27;;;;;;;6.03;3.20;;;15.10;99.90;;;;;;5082566;28;20051;-76
2021/06/23 00:28:53;;;;;;;5.43;3.53;;;15.10;99.90;;;;;;5090921;28;20081;-75
2021/06/23 00:31:18;;;;;;;5.47;3.65;;;15.10;99.90;;;;;;5079215;28;20028;-75
2021/06/23 00:33:47;;;;;;;4.72;3.20;;;15.10;99.90;;;;;;5074415;28;20391;-76
2021/06/23 00:36:12;;;;;;;5.45;3.25;;;15.10;99.90;;;;;;5080822;28;20032;-76
2021/06/23 00:38:38;;;;;;;8.35;4.18;;;15.00;99.90;;;;;;5086800;28;20073;-75
2021/06/23 00:41:03;;;;;;;5.30;3.90;;;15.00;99.90;;;;;;5087289;28;20625;-75
2021/06/23 00:43:29;;;;;;;5.38;3.85;;;15.00;99.90;;;;;;5082742;28;20097;-76
2021/06/23 00:45:54;;;;;;;4.43;3.58;;;15.00;99.90;;;;;;5082810;28;20036;-75
2021/06/23 00:48:27;;;;;;;4.95;3.50;;;14.90;99.90;;;;;;5083154;28;20024;-75
2021/06/23 00:50:53;;;;;;;4.95;3.42;;;14.90;99.90;;;;;;5078319;28;20032;-75
2021/06/23 00:53:29;;;;;;;8.13;3.92;;;14.90;99.90;;;;;;5083108;28;20787;-75
2021/06/23 00:55:56;;;;;;;7.13;3.42;;;14.80;99.90;;;;;;5088917;28;20123;-75
2021/06/23 00:58:23;;;;;;;7.22;3.72;;;14.80;99.90;;;;;;5081602;28;20032;-75
2021/06/23 01:00:51;;;;;;;5.57;3.50;;;14.80;99.90;;;;;;5075868;28;20031;-75
2021/06/23 01:03:16;;;;;;;6.50;3.20;;;14.90;99.90;;;;;;5081901;28;20050;-75
2021/06/23 01:05:42;;;;;;;8.57;3.60;;;14.80;99.90;;;;;;5082082;28;20114;-74
2021/06/23 01:08:09;;;;;;;6.07;3.83;;;14.80;99.90;;;;;;5079386;28;20470;-75
2021/06/23 01:10:35;;;;;;;6.60;4.15;;;14.80;99.90;;;;;;5075756;28;20077;-75
2021/06/23 01:13:09;;;;;;;9.18;3.90;;;14.80;99.90;;;;;;5080692;28;20601;-75
2021/06/23 01:15:38;;;;;;;8.57;4.00;;;14.70;99.90;;;;;;5078718;28;20682;-75
2021/06/23 01:18:05;;;;;;;5.45;3.60;;;14.70;99.90;;;;;;5075862;28;20371;-75
2021/06/23 01:20:31;;;;;;;5.03;4.03;;;14.70;99.90;;;;;;5079139;28;20435;-74
2021/06/23 01:22:56;;;;;;;6.80;4.00;;;14.70;99.90;;;;;;5081311;28;20032;-75
2021/06/23 01:25:22;;;;;;;6.57;4.22;;;14.70;99.90;;;;;;5078968;28;20095;-75
2021/06/23 01:27:47;;;;;;;7.55;3.97;;;14.70;99.90;;;;;;5081385;28;20597;-75
2021/06/23 01:30:15;;;;;;;10.02;4.40;;;14.60;99.90;;;;;;5079684;28;20038;-75
2021/06/23 01:32:41;;;;;;;5.32;3.78;;;14.60;99.90;;;;;;5081128;28;20059;-75
2021/06/23 01:35:07;;;;;;;7.35;3.78;;;14.60;99.90;;;;;;5080865;28;20475;-75
2021/06/23 01:37:33;;;;;;;5.22;3.80;;;14.50;99.90;;;;;;5085281;28;20079;-74
2021/06/23 01:39:59;;;;;;;6.97;4.13;;;14.50;99.90;;;;;;5075972;28;20395;-75
2021/06/23 01:42:26;;;;;;;7.28;4.68;;;14.60;99.90;;;;;;5079214;28;20036;-74
2021/06/23 01:44:51;;;;;;;4.38;3.58;;;14.60;99.90;;;;;;5074802;28;20498;-75
2021/06/23 01:47:20;;;;;;;4.90;4.15;;;14.60;99.90;;;;;;5074709;28;20058;-74
2021/06/23 01:49:46;;;;;;;6.18;4.55;;;14.50;99.90;;;;;;5079129;28;20111;-75
2021/06/23 01:52:30;;;;;;;6.22;4.47;;;14.50;99.90;;;;;;5073104;28;20119;-75
2021/06/23 01:54:55;;;;;;;8.25;4.43;;;14.50;99.90;;;;;;5071589;28;20039;-75
2021/06/23 01:57:21;;;;;;;6.53;3.88;;;14.50;99.90;;;;;;5081917;28;20024;-75
2021/06/23 01:59:48;;;;;;;8.93;4.25;;;14.50;99.90;;;;;;5076522;28;20420;-75
2021/06/23 02:02:28;;;;;;;6.13;4.20;;;14.60;99.90;;;;;;5080426;28;20029;-75
2021/06/23 02:05:04;;;;;;;7.80;4.32;;;14.60;99.90;;;;;;5078895;28;20028;-75
2021/06/23 02:07:51;;;;;;;6.10;4.05;;;14.60;99.90;;;;;;5071873;28;20048;-75
2021/06/23 02:10:38;;;;;;;5.00;4.50;;;14.60;99.90;;;;;;5077889;28;20062;-75
2021/06/23 02:13:29;;;;;;;6.80;4.05;;;14.60;99.90;;;;;;5079029;28;20024;-76
2021/06/23 02:16:10;;;;;;;8.30;4.35;;;14.60;99.90;;;;;;5076467;28;20024;-76
2021/06/23 02:18:36;;;;;;;7.30;4.03;;;14.50;99.90;;;;;;5078951;28;20029;-75
2021/06/23 02:21:04;;;;;;;6.93;4.13;;;14.50;99.90;;;;;;5071909;28;20024;-75
2021/06/23 02:23:30;;;;;;;5.65;4.20;;;14.50;99.90;;;;;;5077206;28;20067;-75
2021/06/23 02:25:57;;;;;;;8.07;4.10;;;14.50;99.90;;;;;;5077935;28;20021;-76
2021/06/23 02:28:22;;;;;;;7.35;4.28;;;14.50;99.90;;;;;;5077876;28;20033;-75
2021/06/23 02:30:50;;;;;;;7.38;4.18;;;14.60;99.90;;;;;;5078502;28;20127;-75
2021/06/23 02:33:17;;;;;;;7.85;4.07;;;14.50;99.90;;;;;;5074552;28;20899;-75
2021/06/23 02:35:43;;;;;;;6.82;4.50;;;14.60;99.90;;;;;;5077233;28;20080;-75
2021/06/23 02:38:09;;;;;;;5.30;4.07;;;14.70;99.90;;;;;;5066973;28;20036;-75
2021/06/23 02:40:36;;;;;;;6.82;4.13;;;14.70;99.90;;;;;;5075554;28;20110;-76
2021/06/23 02:43:01;;;;;;;5.68;4.00;;;14.70;99.90;;;;;;5079661;28;20027;-75
2021/06/23 02:45:27;;;;;;;7.13;4.00;;;14.70;99.90;;;;;;5079769;28;20032;-76
2021/06/23 02:47:53;;;;;;;8.07;3.95;;;14.70;99.90;;;;;;5074141;28;20081;-75
2021/06/23 02:50:20;;;;;;;5.97;3.72;;;14.70;99.90;;;;;;5080582;28;20027;-75
2021/06/23 02:52:45;;;;;;;7.60;4.78;;;14.70;99.90;;;;;;5080526;28;20082;-75
2021/06/23 02:55:19;;;;;;;4.72;3.72;;;14.70;99.90;;;;;;5078589;28;20032;-75
2021/06/23 02:57:47;;;;;;;5.85;4.20;;;14.70;99.90;;;;;;5081908;28;20064;-75
2021/06/23 03:00:13;;;;;;;7.47;3.80;;;14.70;99.90;;;;;;5077550;28;20032;-75
2021/06/23 03:02:38;;;;;;;6.70;4.28;;;14.70;99.90;;;;;;5080509;28;20058;-75
2021/06/23 03:05:05;;;;;;;9.10;4.30;;;14.70;99.90;;;;;;5070720;28;20491;-75
2021/06/23 03:07:31;;;;;;;5.32;3.78;;;14.70;99.90;;;;;;5067980;28;20040;-75
2021/06/23 03:10:11;;;;;;;6.38;4.35;;;14.70;99.90;;;;;;5076593;28;20628;-75
2021/06/23 03:12:37;;;;;;;6.50;4.43;;;14.70;99.90;;;;;;5076636;28;20036;-75
2021/06/23 03:15:05;;;;;;;5.47;4.00;;;14.60;99.90;;;;;;5078773;28;20103;-75
2021/06/23 03:17:30;;;;;;;6.18;4.18;;;14.70;99.90;;;;;;5085595;28;20035;-74
2021/06/23 03:20:07;;;;;;;7.30;4.32;;;14.70;99.90;;;;;;5077541;28;20028;-75
2021/06/23 03:22:33;;;;;;;8.13;5.10;;;14.70;99.90;;;;;;5078153;28;20110;-74
2021/06/23 03:24:58;;;;;;;10.20;4.78;;;14.80;99.90;;;;;;5070387;28;20455;-75
2021/06/23 03:27:24;;;;;;;9.57;4.82;;;14.70;99.90;;;;;;5082198;28;20032;-75
2021/06/23 03:29:49;;;;;;;8.73;4.60;;;14.70;99.90;;;;;;5082400;28;20048;-75
2021/06/23 03:32:15;;;;;;;7.50;4.55;;;14.70;99.90;;;;;;5081383;28;20117;-75
2021/06/23 03:34:41;;;;;;;6.78;4.68;;;14.70;99.90;;;;;;5074210;28;20029;-75
2021/06/23 03:37:07;;;;;;;9.30;5.43;;;14.70;99.90;;;;;;5075115;28;20031;-75
2021/06/23 03:39:36;;;;;;;6.07;4.40;;;14.70;99.90;;;;;;5080941;28;20024;-75
2021/06/23 03:42:02;;;;;;;7.25;4.85;;;14.70;99.90;;;;;;5079481;28;20032;-75
2021/06/23 03:44:28;;;;;;;9.43;5.03;;;14.70;99.90;;;;;;5080366;28;20024;-75
2021/06/23 03:46:55;;;;;;;9.68;4.95;;;14.70;99.90;;;;;;5080517;28;20679;-76
2021/06/23 03:49:21;;;;;;;10.93;5.05;;;14.70;99.90;;;;;;5078038;28;20020;-75
2021/06/23 03:51:46;;;;;;;7.05;4.82;;;14.70;99.90;;;;;;5082293;28;20039;-75
2021/06/23 03:54:12;;;;;;;9.82;5.35;;;14.70;99.90;;;;;;5071328;28;20032;-75
2021/06/23 03:56:37;;;;;;;6.55;4.88;;;14.70;99.90;;;;;;5075243;28;20069;-75
2021/06/23 03:59:03;;;;;;;9.75;5.10;;;14.70;99.90;;;;;;5079734;28;20077;-74
2021/06/23 04:01:29;;;;;;;7.82;4.88;;;14.70;99.90;;;;;;5079365;28;20478;-75
2021/06/23 04:03:54;;;;;;;7.00;5.30;;;14.70;99.90;;;;;;5074749;28;20038;-74
2021/06/23 04:06:20;;;;;;;9.95;5.10;;;14.70;99.90;;;;;;5074611;28;20027;-75
2021/06/23 04:08:45;;;;;;;7.55;5.03;;;14.70;99.90;;;;;;5072784;28;20044;-74
2021/06/23 04:11:11;;;;;;;6.18;4.68;;;14.70;99.90;;;;;;5079031;28;20033;-74
2021/06/23 04:13:36;;;;;;;9.27;4.95;;;14.70;99.90;;;;;;5078303;28;20025;-75
2021/06/23 04:16:02;;;;;;;11.00;5.75;;;14.80;99.90;;;;;;5084403;28;20020;-75
2021/06/23 04:18:28;;;;;;;8.07;4.78;;;14.80;99.90;;;;;;5072435;28;20436;-75
2021/06/23 04:20:53;;;;;;;6.20;4.90;;;14.90;99.90;;;;;;5077620;28;20033;-75
2021/06/23 04:23:18;;;;;;;9.60;5.38;;;14.90;99.90;;;;;;5079489;28;20479;-75
2021/06/23 04:25:44;;;;;;;9.57;5.38;;;14.90;99.90;;;;;;5080066;28;20113;-75
2021/06/23 04:28:09;;;;;;;8.88;4.50;;;15.00;99.90;;;;;;5082197;28;20036;-74
2021/06/23 04:30:35;;;;;;;12.55;5.20;;;15.00;99.90;;;;;;5074659;28;20056;-75
2021/06/23 04:33:00;;;;;;;7.57;5.22;;;15.10;99.90;;;;;;5072031;28;20027;-75
2021/06/23 04:35:26;;;;;;;10.13;5.13;;;15.10;99.90;;;;;;5080290;28;20032;-75
2021/06/23 04:37:51;;;;;;;8.80;4.72;;;15.10;99.90;;;;;;5078836;28;20074;-75
2021/06/23 04:40:17;;;;;;;7.15;4.90;;;15.10;99.90;;;;;;5074621;28;20067;-76
2021/06/23 04:42:44;;;;;;;6.63;4.95;;;15.20;99.90;;;;;;5079108;28;20036;-75
2021/06/23 04:45:11;;;;;;;9.90;6.25;;;15.20;99.90;;;;;;5090755;28;20035;-75
2021/06/23 04:47:38;;;;;;;15.07;5.35;;;15.20;99.90;;;;;;5074204;28;20479;-76
2021/06/23 04:50:06;;;;;;;5.40;4.78;;;15.30;99.90;;;;;;5081752;28;20020;-76
2021/06/23 04:52:32;;;;;;;9.82;4.82;;;15.30;99.90;;;;;;5089595;28;20044;-76
2021/06/23 04:54:57;;;;;;;10.85;4.93;;;15.40;99.90;;;;;;5078620;28;20548;-75
2021/06/23 04:57:23;;;;;;;9.88;5.05;;;15.40;99.90;;;;;;5081781;28;20035;-73
2021/06/23 04:59:48;;;;;;;8.18;4.80;;;15.40;99.90;;;;;;5078435;28;20032;-74
2021/06/23 05:02:14;;;;;;;8.88;4.70;;;15.50;99.90;;;;;;5082629;28;20035;-75
2021/06/23 05:04:40;;;;;;;11.38;4.50;;;15.60;99.90;;;;;;5081437;28;20101;-75
2021/06/23 05:07:07;;;;;;;8.68;4.20;;;15.60;99.90;;;;;;5080120;28;20044;-74
2021/06/23 05:09:34;;;;;;;8.20;4.30;;;15.70;99.90;;;;;;5084747;28;20399;-72
2021/06/23 05:12:00;;;;;;;11.65;4.38;;;15.80;99.90;;;;;;5076908;28;20082;-75
2021/06/23 05:14:25;;;;;;;7.32;4.35;;;15.90;99.90;;;;;;5076002;28;20028;-74
2021/06/23 05:16:51;;;;;;;6.43;3.95;;;16.00;99.90;;;;;;5077885;28;20438;-72
2021/06/23 05:19:20;;;;;;;11.13;3.75;;;16.10;99.90;;;;;;5083474;28;20038;-72
2021/06/23 05:21:46;;;;;;;13.82;4.00;;;16.20;99.90;;;;;;5079599;28;20115;-72
2021/06/23 05:24:12;;;;;;;10.40;3.58;;;16.30;99.90;;;;;;5080546;28;20127;-72
2021/06/23 05:26:37;;;;;;;10.05;4.00;;;16.40;99.90;;;;;;5080985;28;20478;-72
2021/06/23 05:29:04;;;;;;;7.72;3.92;;;16.50;99.90;;;;;;5073683;28;20490;-72
2021/06/23 05:31:30;;;;;;;8.15;4.18;;;16.60;99.90;;;;;;5072403;28;20028;-73
2021/06/23 05:33:55;;;;;;;6.05;3.45;;;16.70;99.90;;;;;;5078365;28;20023;-74
2021/06/23 05:36:21;;;;;;;6.40;3.28;;;16.80;99.90;;;;;;5080338;28;20020;-75
2021/06/23 05:38:46;;;;;;;13.57;3.35;;;16.90;99.90;;;;;;5077540;28;20043;-75
2021/06/23 05:41:12;;;;;;;7.03;3.03;;;17.00;99.90;;;;;;5078365;28;20072;-76
2021/06/23 05:43:38;;;;;;;5.88;3.33;;;17.10;99.90;;;;;;5080642;28;20115;-75
2021/06/23 05:46:22;;;;;;;4.55;2.58;;;17.20;99.90;;;;;;5082184;28;20048;-75
2021/06/23 05:48:47;;;;;;;8.48;3.20;;;17.20;99.90;;;;;;5076228;28;20438;-75
2021/06/23 05:51:13;;;;;;;10.15;3.20;;;17.30;99.90;;;;;;5088135;28;20034;-75
2021/06/23 05:53:38;;;;;;;7.63;3.17;;;17.30;99.90;;;;;;5072017;28;20036;-75
2021/06/23 05:56:04;;;;;;;5.15;2.80;;;17.40;99.90;;;;;;5086269;28;20411;-75
2021/06/23 05:58:30;;;;;;;9.32;3.28;;;17.40;99.90;;;;;;5076854;28;20085;-75
2021/06/23 06:00:55;;;;;;;7.57;3.05;;;17.50;99.90;;;;;;5087035;28;20024;-73
2021/06/23 06:03:21;;;;;;;8.15;3.00;;;17.50;99.90;;;;;;5071468;28;20033;-73
2021/06/23 06:05:47;;;;;;;4.68;2.80;;;17.50;99.90;;;;;;5082429;28;20032;-73
2021/06/23 06:08:13;;;;;;;16.27;4.57;;;17.50;99.90;;;;;;5071686;28;20059;-73
2021/06/23 06:10:38;;;;;;;7.70;3.10;;;17.60;99.90;;;;;;5074875;28;20115;-73
2021/06/23 06:13:06;;;;;;;7.07;3.25;;;17.60;99.90;;;;;;5075591;28;20115;-73
2021/06/23 06:15:32;;;;;;;10.57;3.85;;;17.60;99.90;;;;;;5073410;28;20028;-73
2021/06/23 06:18:07;;;;;;;7.75;3.58;;;17.60;99.90;;;;;;5084003;28;20065;-73
2021/06/23 06:20:33;;;;;;;6.13;2.88;;;17.70;99.90;;;;;;5073939;28;20133;-73
2021/06/23 06:22:59;;;;;;;7.57;2.92;;;17.80;99.90;;;;;;5080944;28;20033;-73
2021/06/23 06:25:26;;;;;;;5.60;2.88;;;17.80;99.90;;;;;;5084610;28;20031;-73
2021/06/23 06:27:51;;;;;;;8.55;2.63;;;17.90;99.90;;;;;;5086553;28;20070;-73
2021/06/23 06:30:46;;;;;;;9.32;3.30;;;17.90;99.90;;;;;;5086668;28;20059;-73
2021/06/23 06:33:12;;;;;;;10.40;3.05;;;18.00;99.90;;;;;;5082170;28;20042;-73
2021/06/23 06:35:38;;;;;;;5.53;2.60;;;18.10;99.90;;;;;;5081063;28;20032;-73
2021/06/23 06:38:04;;;;;;;10.63;3.15;;;18.10;99.90;;;;;;5080381;28;20028;-73
2021/06/23 06:40:30;;;;;;;7.95;3.22;;;18.20;99.90;;;;;;5080487;28;20025;-73
2021/06/23 06:42:56;;;;;;;6.50;2.80;;;18.20;99.90;;;;;;5076394;28;20027;-73
2021/06/23 06:45:23;;;;;;;7.72;2.70;;;18.30;99.90;;;;;;5079977;28;20028;-73
2021/06/23 06:47:48;;;;;;;8.80;3.25;;;18.30;99.90;;;;;;5077280;28;20023;-73
2021/06/23 06:50:14;;;;;;;7.05;2.90;;;18.30;99.90;;;;;;5079639;28;20031;-76
2021/06/23 06:52:39;;;;;;;7.03;2.92;;;18.40;99.90;;;;;;5075347;28;20376;-75
2021/06/23 06:55:06;;;;;;;8.48;3.13;;;18.50;99.90;;;;;;5078042;28;20095;-75
2021/06/23 06:57:32;;;;;;;7.55;3.17;;;18.50;99.90;;;;;;5088898;28;20028;-76
2021/06/23 07:00:01;;;;;;;5.30;3.13;;;18.60;99.90;;;;;;5079454;28;20538;-73
2021/06/23 07:02:26;;;;;;;5.35;3.03;;;18.70;99.90;;;;;;5077143;28;20104;-73
2021/06/23 07:04:52;;;;;;;5.85;2.65;;;18.70;99.90;;;;;;5086005;28;20103;-74
2021/06/23 07:07:17;;;;;;;8.98;3.03;;;18.80;99.90;;;;;;5068825;28;20055;-75
2021/06/23 07:09:43;;;;;;;9.65;3.30;;;18.90;99.90;;;;;;5082108;28;20403;-76
2021/06/23 07:12:09;;;;;;;6.97;2.55;;;18.90;99.90;;;;;;5085531;28;20043;-76
2021/06/23 07:14:34;;;;;;;5.13;2.90;;;18.90;99.90;;;;;;5074092;28;20016;-77
2021/06/23 07:17:00;;;;;;;13.65;3.08;;;19.00;99.90;;;;;;5073140;28;20544;-77
2021/06/23 07:19:26;;;;;;;11.43;2.90;;;19.00;99.90;;;;;;5077757;28;20032;-73
2021/06/23 07:21:51;;;;;;;11.20;3.13;;;19.10;99.90;;;;;;5077796;28;20031;-74
2021/06/23 07:24:18;;;;;;;7.50;2.55;;;19.10;99.90;;;;;;5071019;28;20107;-77
2021/06/23 07:26:46;;;;;;;7.00;2.70;;;19.10;99.90;;;;;;5082483;28;20467;-75
2021/06/23 07:29:11;;;;;;;5.60;2.80;;;19.20;99.90;;;;;;5073904;28;20107;-74
2021/06/23 07:36:39;;;;;;;4.05;2.60;;;19.30;99.40;;;;;;5081219;28;20054;-75
2021/06/23 07:39:11;;;;;;;9.77;2.35;;;19.40;99.60;;;;;;5080286;28;20048;-75
2021/06/23 07:41:38;;;;;;;5.82;3.00;;;19.50;99.90;;;;;;5077745;28;20028;-74
2021/06/23 07:44:04;;;;;;;7.55;2.50;;;19.50;99.90;;;;;;5073777;28;20173;-71
2021/06/23 07:46:37;;;;;;;3.67;2.38;;;19.70;96.90;;;;;;5074052;28;20483;-71
2021/06/23 07:49:04;;;;;;;6.93;2.70;;;19.80;98.80;;;;;;5081929;28;20020;-71
2021/06/23 07:51:39;;;;;;;4.20;2.40;;;19.90;98.70;;;;;;5091520;28;20540;-71
2021/06/23 07:54:18;;;;;;;5.72;2.25;;;20.00;98.80;;;;;;5089658;28;20505;-71
2021/06/23 08:10:14;;;;;;;7.15;2.38;;;20.30;93.10;;;;;;5078624;28;20602;-73
2021/06/23 08:15:09;;;;;;;5.63;2.40;;;20.40;95.40;;;;;;5087288;28;20123;-71
2021/06/23 08:17:34;;;;;;;5.63;2.40;;;20.50;94.00;;;;;;5083799;28;20028;-71
2021/06/23 08:19:59;;;;;;;11.10;2.38;;;20.50;92.80;;;;;;5081880;28;20028;-71
2021/06/23 08:22:25;;;;;;;4.72;2.45;;;20.60;92.40;;;;;;5085505;28;20024;-71
2021/06/23 08:24:50;;;;;;;8.73;2.50;;;20.60;94.00;;;;;;5086628;28;20032;-73
2021/06/23 08:27:16;;;;;;;10.05;2.53;;;20.70;94.90;;;;;;5087341;28;20387;-74
2021/06/23 08:29:41;;;;;;;10.52;2.28;;;20.80;93.20;;;;;;5073693;28;20029;-74
2021/06/23 08:32:07;;;;;;;8.98;2.53;;;20.90;93.60;;;;;;5090279;28;20051;-71
2021/06/23 08:34:33;;;;;;;6.53;2.55;;;21.00;93.00;;;;;;5083716;28;20361;-71
2021/06/23 08:36:58;;;;;;;5.00;2.45;;;21.10;90.90;;;;;;5090636;28;20027;-74
2021/06/23 08:39:24;;;;;;;4.47;2.25;;;21.10;91.20;;;;;;5082082;28;20021;-71
2021/06/23 08:41:50;;;;;;;6.93;2.40;;;21.20;90.80;;;;;;5091498;28;20031;-74
2021/06/23 08:44:15;;;;;;;8.32;2.40;;;21.30;90.20;;;;;;5089465;28;20126;-74
2021/06/23 08:46:41;;;;;;;4.95;2.22;;;21.30;88.90;;;;;;5088896;28;20093;-74
2021/06/23 08:49:08;;;;;;;4.38;2.28;;;21.30;88.40;;;;;;5082264;28;20020;-73
2021/06/23 08:51:39;;;;;;;10.55;3.33;;;21.30;87.40;;;;;;5081367;28;20055;-74
2021/06/23 08:54:05;;;;;;;11.68;2.40;;;21.20;83.50;;;;;;5080891;28;20025;-74
2021/06/23 08:56:30;;;;;;;9.05;2.25;;;21.20;84.20;;;;;;5076838;28;20544;-74
2021/06/23 08:58:56;;;;;;;6.60;2.55;;;21.20;82.80;;;;;;5087328;28;20024;-74
2021/06/23 09:01:21;;;;;;;9.02;2.83;;;21.20;82.10;;;;;;5097080;28;20108;-73
2021/06/23 09:04:08;;;;;;;5.32;2.30;;;21.20;83.70;;;;;;5084675;28;20035;-73
2021/06/23 09:06:58;;;;;;;4.47;2.30;;;21.20;82.00;;;;;;5083421;28;20097;-73
2021/06/23 09:09:30;;;;;;;4.63;2.33;;;21.20;83.10;;;;;;5091310;28;20428;-73
2021/06/23 09:12:08;;;;;;;6.05;2.13;;;21.20;80.10;;;;;;5085631;28;20165;-72
2021/06/23 09:14:38;;;;;;;16.50;2.28;;;21.20;81.70;;;;;;5082667;28;20055;-72
2021/06/23 09:17:15;;;;;;;7.18;2.58;;;21.20;78.00;;;;;;5082020;28;20081;-72
2021/06/23 09:19:43;;;;;;;5.20;2.38;;;21.20;82.00;;;;;;5089616;28;20030;-72
2021/06/23 09:22:35;;;;;;;3.80;2.45;;;21.30;77.40;;;;;;5090795;28;20036;-72
2021/06/23 09:25:06;;;;;;;6.03;2.70;;;21.30;82.00;;;;;;5089114;28;20024;-72
2021/06/23 09:27:31;;;;;;;7.25;2.10;;;21.40;78.90;;;;;;5090339;28;20115;-72
2021/06/23 09:30:25;;;;;;;7.38;2.20;;;21.50;79.20;;;;;;5085433;28;20443;-72
2021/06/23 09:33:09;;;;;;;7.38;2.47;;;21.40;76.40;;;;;;5077596;28;20036;-71
2021/06/23 09:35:36;;;;;;;8.38;2.65;;;21.30;76.80;;;;;;5071257;28;20060;-72
2021/06/23 09:38:03;;;;;;;7.30;2.40;;;21.30;78.10;;;;;;5084510;28;20073;-72
2021/06/23 09:40:30;;;;;;;12.50;2.72;;;21.30;81.80;;;;;;5088675;28;20028;-75
2021/06/23 09:43:01;;;;;;;10.63;3.08;;;21.30;81.10;;;;;;5089992;28;20364;-72
2021/06/23 09:45:31;;;;;;;4.40;2.37;;;21.40;80.10;;;;;;5088821;28;20047;-72
2021/06/23 09:48:08;;;;;;;8.10;2.78;;;21.50;81.30;;;;;;5089108;28;20032;-72
2021/06/23 09:50:36;;;;;;;4.45;2.70;;;21.70;81.40;;;;;;5086171;28;20024;-74
2021/06/23 09:53:05;;;;;;;13.45;2.90;;;21.90;77.80;;;;;;5083646;28;20056;-71
2021/06/23 09:55:46;;;;;;;12.25;3.03;;;22.10;77.90;;;;;;5077486;28;20046;-72
2021/06/23 09:58:21;;;;;;;9.57;3.00;;;22.20;77.70;;;;;;5079563;28;20063;-71
2021/06/23 10:00:56;;;;;;;7.85;2.70;;;22.30;78.20;;;;;;5089653;28;20024;-72
2021/06/23 10:03:22;;;;;;;5.53;2.70;;;22.50;80.20;;;;;;5089750;28;20024;-72
2021/06/23 10:05:47;;;;;;;6.63;2.92;;;22.60;74.90;;;;;;5084534;28;20111;-72
2021/06/23 10:08:27;;;;;;;6.15;2.55;;;22.60;74.50;;;;;;5078154;28;20045;-73
2021/06/23 10:10:54;;;;;;;8.70;3.50;;;22.60;72.50;;;;;;5083405;28;20122;-71
2021/06/23 10:13:20;;;;;;;7.20;2.55;;;22.60;70.80;;;;;;5081041;28;20111;-71
2021/06/23 10:15:49;;;;;;;6.90;2.80;;;22.60;71.20;;;;;;5083522;28;20024;-71
2021/06/23 10:18:18;;;;;;;5.65;2.85;;;22.60;70.60;;;;;;5080743;28;20020;-74
2021/06/23 10:20:48;;;;;;;6.80;2.60;;;22.50;72.50;;;;;;5086418;28;20390;-71
2021/06/23 10:23:15;;;;;;;11.27;3.28;;;22.50;75.20;;;;;;5089510;28;20107;-73
2021/06/23 10:25:43;;;;;;;4.03;2.30;;;22.60;72.90;;;;;;5087597;28;20497;-71
2021/06/23 10:28:09;;;;;;;4.88;2.75;;;22.60;71.80;;;;;;5082771;28;20514;-71
2021/06/23 10:30:35;;;;;;;3.83;2.50;;;22.50;72.10;;;;;;5079545;28;20056;-72
2021/06/23 10:33:01;;;;;;;5.13;2.47;;;22.40;71.30;;;;;;5089207;28;20059;-71
2021/06/23 10:35:27;;;;;;;7.50;2.78;;;22.40;73.30;;;;;;5089393;28;20048;-72
2021/06/23 10:37:53;;;;;;;3.13;2.50;;;22.50;74.80;;;;;;5087832;28;20063;-71
2021/06/23 10:40:19;;;;;;;6.10;2.45;;;22.50;71.30;;;;;;5082274;28;20082;-72
2021/06/23 10:42:46;;;;;;;4.00;2.50;;;22.60;72.20;;;;;;5075632;28;20123;-72
2021/06/23 10:45:13;;;;;;;7.68;2.72;;;22.60;74.20;;;;;;5088935;28;20550;-72
2021/06/23 10:47:47;;;;;;;8.82;2.88;;;22.70;71.40;;;;;;5082129;28;20067;-71
2021/06/23 10:50:33;;;;;;;9.95;2.75;;;22.80;73.00;;;;;;5088446;28;20101;-71
2021/06/23 10:52:59;;;;;;;6.32;2.65;;;22.60;71.10;;;;;;5087777;28;20032;-71
2021/06/23 10:55:25;;;;;;;7.00;2.55;;;22.70;73.60;;;;;;5088783;28;20031;-72
2021/06/23 10:57:57;;;;;;;10.75;2.53;;;22.60;72.10;;;;;;5086664;28;20424;-71
2021/06/23 11:00:26;;;;;;;4.55;3.05;;;22.60;71.60;;;;;;5080879;28;20024;-72
2021/06/23 11:03:21;;;;;;;7.22;3.25;;;22.60;72.70;;;;;;5085924;28;20047;-72
2021/06/23 11:05:49;;;;;;;4.35;2.35;;;22.50;74.90;;;;;;4999623;28;20070;-72
2021/06/23 11:08:32;;;;;;;8.15;2.75;;;22.40;74.00;;;;;;5078524;28;20052;-72
2021/06/23 11:11:01;;;;;;;5.88;2.78;;;22.20;73.90;;;;;;5083016;28;20111;-71
2021/06/23 11:13:29;;;;;;;9.65;2.80;;;22.00;73.30;;;;;;5080017;28;20035;-71
2021/06/23 11:15:55;;;;;;;8.18;3.17;;;21.70;74.80;;;;;;5086286;28;20471;-71
2021/06/23 11:18:38;;;;;;;10.18;2.92;;;21.60;74.70;;;;;;5088999;28;20111;-71
2021/06/23 11:21:06;;;;;;;11.32;3.00;;;21.40;76.10;;;;;;5091570;28;20024;-71
2021/06/23 11:23:39;;;;;;;6.72;2.80;;;21.30;75.50;;;;;;5090822;28;20110;-71
2021/06/23 11:26:06;;;;;;;5.15;2.85;;;21.00;77.90;;;;;;5090179;28;20047;-71
2021/06/23 11:28:36;;;;;;;9.93;3.00;;;20.90;79.90;;;;;;5092909;28;20081;-71
2021/06/23 11:31:06;;;;;;;8.82;2.85;;;20.90;82.80;;;;;;5085726;28;20360;-72
2021/06/23 11:33:57;;;;;;;7.85;2.83;;;20.90;78.20;;;;;;5092267;28;20535;-71
2021/06/23 11:36:24;;;;;;;6.82;2.95;;;20.80;78.50;;;;;;5092737;28;20039;-72
2021/06/23 11:38:53;;;;;;;6.53;2.97;;;20.80;80.50;;;;;;5090678;28;20028;-72
2021/06/23 11:41:20;;;;;;;12.90;3.90;;;20.70;79.60;;;;;;5087713;28;20604;-72
2021/06/23 11:43:47;;;;;;;6.50;3.28;;;20.60;80.30;;;;;;5092384;28;20602;-71
2021/06/23 11:46:13;;;;;;;8.60;3.20;;;20.60;81.90;;;;;;5078514;28;20395;-71
2021/06/23 11:48:40;;;;;;;8.32;3.03;;;20.50;82.90;;;;;;5092395;28;20028;-71
2021/06/23 11:51:06;;;;;;;6.18;2.80;;;20.50;83.00;;;;;;5087585;28;20051;-72
2021/06/23 11:53:33;;;;;;;11.23;2.70;;;20.60;86.00;;;;;;5092160;28;20035;-71
2021/06/23 11:55:58;;;;;;;6.00;2.90;;;20.70;85.20;;;;;;5088784;28;20025;-71
2021/06/23 11:58:24;;;;;;;3.85;2.78;;;20.80;85.00;;;;;;5092337;28;20030;-72
2021/06/23 12:00:49;;;;;;;7.05;2.63;;;20.80;84.70;;;;;;5080861;28;20024;-71
2021/06/23 12:03:17;;;;;;;7.70;3.25;;;20.80;83.50;;;;;;5092011;28;20684;-71
2021/06/23 12:05:44;;;;;;;6.00;2.67;;;20.70;83.30;;;;;;5089275;28;20036;-71
2021/06/23 12:08:10;;;;;;;8.25;3.00;;;20.60;83.80;;;;;;5085867;28;20040;-72
2021/06/23 12:10:37;;;;;;;5.32;2.72;;;20.50;85.30;;;;;;5082553;28;20075;-72
2021/06/23 12:13:04;;;;;;;9.50;3.13;;;20.50;85.30;;;;;;5091987;28;20483;-71
2021/06/23 12:15:31;;;;;;;5.43;2.92;;;20.50;85.00;;;;;;5090051;28;20066;-71
2021/06/23 12:18:21;;;;;;;9.57;3.15;;;20.40;84.50;;;;;;5079800;28;20028;-71
2021/06/23 12:20:46;;;;;;;10.10;3.38;;;20.40;84.50;;;;;;5073300;28;20396;-71
2021/06/23 12:23:12;;;;;;;10.45;3.28;;;20.40;85.30;;;;;;5081957;28;20019;-72
2021/06/23 12:25:43;;;;;;;7.50;2.88;;;20.20;83.00;;;;;;5078078;28;20031;-71
2021/06/23 12:28:11;;;;;;;11.02;3.60;;;20.20;83.90;;;;;;5082224;28;20036;-71
2021/06/23 12:30:38;;;;;;;9.98;3.00;;;20.10;82.80;;;;;;5084018;28;20441;-71
2021/06/23 12:33:06;;;;;;;7.03;3.05;;;20.10;82.70;;;;;;5080957;28;20028;-71
2021/06/23 12:35:31;;;;;;;9.13;3.92;;;20.00;83.60;;;;;;5088598;28;20111;-71
2021/06/23 12:37:58;;;;;;;8.07;3.05;;;20.00;85.70;;;;;;5088345;28;20110;-72
2021/06/23 12:40:24;;;;;;;8.07;3.10;;;20.00;88.70;;;;;;5087398;28;20039;-71
2021/06/23 12:42:49;;;;;;;8.88;3.00;;;19.90;91.50;;;;;;5074453;28;20119;-71
2021/06/23 12:45:15;;;;;;;8.68;3.47;;;19.90;91.00;;;;;;5078236;28;20364;-71
2021/06/23 12:47:41;;;;;;;7.50;2.97;;;19.80;89.40;;;;;;5085932;28;20425;-72
2021/06/23 12:50:08;;;;;;;6.68;3.05;;;19.70;89.70;;;;;;5082608;28;20081;-72
2021/06/23 12:52:34;;;;;;;7.43;2.90;;;19.70;89.50;;;;;;5088042;28;20505;-71
2021/06/23 12:55:00;;;;;;;7.00;3.33;;;19.50;90.80;;;;;;5083348;28;20050;-72
2021/06/23 12:57:25;;;;;;;9.02;3.70;;;19.50;91.80;;;;;;5076706;28;20066;-71
2021/06/23 12:59:52;;;;;;;5.63;3.35;;;19.40;91.80;;;;;;5084196;28;20028;-72
2021/06/23 13:02:17;;;;;;;9.43;3.47;;;19.50;92.00;;;;;;5084238;28;20027;-71
2021/06/23 13:04:43;;;;;;;7.75;3.63;;;19.50;92.90;;;;;;5083593;28;20045;-72
2021/06/23 13:07:08;;;;;;;5.75;3.25;;;19.50;93.40;;;;;;5086258;28;20086;-71
2021/06/23 13:09:44;;;;;;;10.40;3.60;;;19.60;96.20;;;;;;5079745;28;20486;-71
2021/06/23 13:12:09;;;;;;;14.80;3.30;;;19.70;95.00;;;;;;5085990;28;20035;-71